sensor_id;sensor_type;location;lat;lon;timestamp;pressure;altitude;pressure_sealevel;temperature;humidity
1401;BME280;46518;48.842;8.926;2023-07-08T00:01:14;97178.72;;;23.33;36.20
1401;BME280;46518;48.842;8.926;2023-07-08T00:03:45;97173.44;;;23.24;35.04
1401;BME280;46518;48.842;8.926;2023-07-08T00:06:20;97170.59;;;23.21;35.47
1401;BME280;46518;48.842;8.926;2023-07-08T00:08:52;97172.22;;;23.13;36.31
1401;BME280;46518;48.842;8.926;2023-07-08T00:11:23;97168.81;;;23.04;36.48
1401;BME280;46518;48.842;8.926;2023-07-08T00:13:51;97160.97;;;22.99;36.83
1401;BME280;46518;48.842;8.926;2023-07-08T00:16:19;97165.56;;;22.90;36.64
1401;BME280;46518;48.842;8.926;2023-07-08T00:18:49;97160.38;;;22.85;36.76
1401;BME280;46518;48.842;8.926;2023-07-08T00:21:19;97156.28;;;22.78;36.91
1401;BME280;46518;48.842;8.926;2023-07-08T00:23:51;97163.78;;;22.94;37.03
1401;BME280;46518;48.842;8.926;2023-07-08T00:26:22;97160.19;;;22.90;36.46
1401;BME280;46518;48.842;8.926;2023-07-08T00:29:00;97151.72;;;22.79;36.88
1401;BME280;46518;48.842;8.926;2023-07-08T00:31:36;97157.00;;;22.67;36.35
1401;BME280;46518;48.842;8.926;2023-07-08T00:34:04;97155.28;;;22.62;36.55
1401;BME280;46518;48.842;8.926;2023-07-08T00:36:43;97154.50;;;22.53;38.06
1401;BME280;46518;48.842;8.926;2023-07-08T00:39:21;97160.25;;;22.43;37.79
1401;BME280;46518;48.842;8.926;2023-07-08T00:41:53;97162.78;;;22.30;38.24
1401;BME280;46518;48.842;8.926;2023-07-08T00:44:24;97173.38;;;22.27;38.60
1401;BME280;46518;48.842;8.926;2023-07-08T00:46:58;97169.44;;;22.15;39.40
1401;BME280;46518;48.842;8.926;2023-07-08T00:49:40;97175.09;;;22.14;39.36
1401;BME280;46518;48.842;8.926;2023-07-08T00:52:21;97175.78;;;22.02;39.71
1401;BME280;46518;48.842;8.926;2023-07-08T00:55:01;97171.50;;;22.01;39.80
1401;BME280;46518;48.842;8.926;2023-07-08T00:57:39;97167.09;;;21.96;39.81
1401;BME280;46518;48.842;8.926;2023-07-08T01:00:15;97174.22;;;21.92;39.24
1401;BME280;46518;48.842;8.926;2023-07-08T01:02:53;97173.59;;;21.78;39.10
1401;BME280;46518;48.842;8.926;2023-07-08T01:05:27;97175.31;;;21.74;39.47
1401;BME280;46518;48.842;8.926;2023-07-08T01:08:07;97173.13;;;21.67;39.53
1401;BME280;46518;48.842;8.926;2023-07-08T01:10:49;97163.34;;;21.54;39.71
1401;BME280;46518;48.842;8.926;2023-07-08T01:13:37;97164.91;;;21.46;39.84
1401;BME280;46518;48.842;8.926;2023-07-08T01:16:11;97153.06;;;21.30;40.40
1401;BME280;46518;48.842;8.926;2023-07-08T01:18:48;97158.75;;;21.37;40.95
1401;BME280;46518;48.842;8.926;2023-07-08T01:21:34;97159.22;;;21.30;40.89
1401;BME280;46518;48.842;8.926;2023-07-08T01:24:11;97157.00;;;21.32;41.41
1401;BME280;46518;48.842;8.926;2023-07-08T01:26:46;97163.44;;;21.31;41.59
1401;BME280;46518;48.842;8.926;2023-07-08T01:29:28;97158.47;;;21.47;41.47
1401;BME280;46518;48.842;8.926;2023-07-08T01:32:04;97161.63;;;21.58;41.40
1401;BME280;46518;48.842;8.926;2023-07-08T01:34:43;97160.03;;;21.66;40.94
1401;BME280;46518;48.842;8.926;2023-07-08T01:37:30;97156.88;;;21.64;40.66
1401;BME280;46518;48.842;8.926;2023-07-08T01:40:35;97164.94;;;21.72;40.36
1401;BME280;46518;48.842;8.926;2023-07-08T01:43:08;97158.00;;;21.63;40.08
1401;BME280;46518;48.842;8.926;2023-07-08T01:45:43;97153.59;;;21.49;39.96
1401;BME280;46518;48.842;8.926;2023-07-08T01:48:19;97157.94;;;21.37;39.92
1401;BME280;46518;48.842;8.926;2023-07-08T01:50:58;97151.97;;;21.31;40.07
1401;BME280;46518;48.842;8.926;2023-07-08T01:53:39;97153.19;;;21.16;40.47
1401;BME280;46518;48.842;8.926;2023-07-08T01:56:20;97156.97;;;20.98;40.93
1401;BME280;46518;48.842;8.926;2023-07-08T01:58:53;97160.25;;;20.95;40.86
1401;BME280;46518;48.842;8.926;2023-07-08T02:01:36;97159.34;;;20.99;41.23
1401;BME280;46518;48.842;8.926;2023-07-08T02:04:17;97153.53;;;21.15;41.70
1401;BME280;46518;48.842;8.926;2023-07-08T02:06:59;97163.75;;;21.13;41.53
1401;BME280;46518;48.842;8.926;2023-07-08T02:09:39;97160.63;;;21.19;41.33
1401;BME280;46518;48.842;8.926;2023-07-08T02:12:28;97161.41;;;21.28;41.00
1401;BME280;46518;48.842;8.926;2023-07-08T02:15:09;97157.00;;;21.32;41.15
1401;BME280;46518;48.842;8.926;2023-07-08T02:17:46;97158.91;;;21.32;41.52
1401;BME280;46518;48.842;8.926;2023-07-08T02:20:18;97162.19;;;21.29;41.09
1401;BME280;46518;48.842;8.926;2023-07-08T02:22:58;97171.19;;;21.33;41.55
1401;BME280;46518;48.842;8.926;2023-07-08T02:25:32;97171.34;;;21.28;41.54
1401;BME280;46518;48.842;8.926;2023-07-08T02:28:16;97166.13;;;21.23;40.97
1401;BME280;46518;48.842;8.926;2023-07-08T02:30:45;97172.59;;;21.30;40.98
1401;BME280;46518;48.842;8.926;2023-07-08T02:33:38;97168.50;;;21.33;40.82
1401;BME280;46518;48.842;8.926;2023-07-08T02:36:14;97173.84;;;21.33;40.79
1401;BME280;46518;48.842;8.926;2023-07-08T02:38:42;97179.97;;;21.16;40.41
1401;BME280;46518;48.842;8.926;2023-07-08T02:41:18;97173.94;;;20.93;41.14
1401;BME280;46518;48.842;8.926;2023-07-08T02:43:52;97176.63;;;20.93;41.27
1401;BME280;46518;48.842;8.926;2023-07-08T02:46:25;97169.66;;;20.83;41.43
1401;BME280;46518;48.842;8.926;2023-07-08T02:49:02;97173.59;;;20.86;42.01
1401;BME280;46518;48.842;8.926;2023-07-08T02:51:37;97167.94;;;20.87;41.72
1401;BME280;46518;48.842;8.926;2023-07-08T02:54:19;97171.59;;;21.00;41.59
1401;BME280;46518;48.842;8.926;2023-07-08T02:56:58;97169.41;;;21.02;42.52
1401;BME280;46518;48.842;8.926;2023-07-08T02:59:33;97170.97;;;21.03;42.55
1401;BME280;46518;48.842;8.926;2023-07-08T03:02:01;97169.03;;;20.86;41.56
1401;BME280;46518;48.842;8.926;2023-07-08T03:04:33;97174.84;;;20.80;39.99
1401;BME280;46518;48.842;8.926;2023-07-08T03:07:08;97176.59;;;20.84;39.69
1401;BME280;46518;48.842;8.926;2023-07-08T03:09:47;97185.28;;;20.99;38.95
1401;BME280;46518;48.842;8.926;2023-07-08T03:12:28;97181.03;;;21.06;38.69
1401;BME280;46518;48.842;8.926;2023-07-08T03:15:06;97180.78;;;21.25;38.13
1401;BME280;46518;48.842;8.926;2023-07-08T03:17:46;97183.38;;;21.39;37.81
1401;BME280;46518;48.842;8.926;2023-07-08T03:20:19;97198.94;;;21.46;37.55
1401;BME280;46518;48.842;8.926;2023-07-08T03:23:16;97182.25;;;21.58;37.50
1401;BME280;46518;48.842;8.926;2023-07-08T03:26:09;97185.09;;;21.70;37.45
1401;BME280;46518;48.842;8.926;2023-07-08T03:28:47;97185.56;;;21.72;37.40
1401;BME280;46518;48.842;8.926;2023-07-08T03:31:29;97182.69;;;22.03;36.78
1401;BME280;46518;48.842;8.926;2023-07-08T03:34:07;97180.16;;;22.15;36.79
1401;BME280;46518;48.842;8.926;2023-07-08T03:36:42;97179.06;;;22.25;36.71
1401;BME280;46518;48.842;8.926;2023-07-08T03:39:21;97185.69;;;22.19;36.76
1401;BME280;46518;48.842;8.926;2023-07-08T03:41:55;97171.00;;;22.16;37.01
1401;BME280;46518;48.842;8.926;2023-07-08T03:44:31;97172.75;;;22.30;36.66
1401;BME280;46518;48.842;8.926;2023-07-08T03:47:00;97177.47;;;22.33;36.87
1401;BME280;46518;48.842;8.926;2023-07-08T03:49:41;97187.72;;;22.31;37.54
1401;BME280;46518;48.842;8.926;2023-07-08T03:52:15;97184.72;;;22.24;37.92
1401;BME280;46518;48.842;8.926;2023-07-08T03:54:45;97189.94;;;22.20;38.38
1401;BME280;46518;48.842;8.926;2023-07-08T03:57:19;97186.78;;;22.09;38.63
1401;BME280;46518;48.842;8.926;2023-07-08T03:59:50;97183.03;;;22.02;38.37
1401;BME280;46518;48.842;8.926;2023-07-08T04:02:21;97187.91;;;21.91;38.74
1401;BME280;46518;48.842;8.926;2023-07-08T04:04:50;97189.81;;;21.73;38.66
1401;BME280;46518;48.842;8.926;2023-07-08T04:07:25;97192.19;;;21.66;39.22
1401;BME280;46518;48.842;8.926;2023-07-08T04:10:01;97182.41;;;21.44;40.03
1401;BME280;46518;48.842;8.926;2023-07-08T04:12:30;97198.25;;;21.23;40.56
1401;BME280;46518;48.842;8.926;2023-07-08T04:15:02;97188.34;;;21.32;40.82
1401;BME280;46518;48.842;8.926;2023-07-08T04:17:34;97193.72;;;21.32;39.94
1401;BME280;46518;48.842;8.926;2023-07-08T04:20:08;97190.06;;;21.37;40.04
1401;BME280;46518;48.842;8.926;2023-07-08T04:22:37;97195.63;;;21.40;41.92
1401;BME280;46518;48.842;8.926;2023-07-08T04:25:06;97193.13;;;21.52;42.11
1401;BME280;46518;48.842;8.926;2023-07-08T04:27:40;97192.50;;;21.47;42.86
1401;BME280;46518;48.842;8.926;2023-07-08T04:30:19;97185.06;;;21.44;43.18
1401;BME280;46518;48.842;8.926;2023-07-08T04:32:53;97179.56;;;21.40;43.40
1401;BME280;46518;48.842;8.926;2023-07-08T04:38:15;97187.88;;;21.30;44.75
1401;BME280;46518;48.842;8.926;2023-07-08T04:40:47;97183.00;;;21.32;44.59
1401;BME280;46518;48.842;8.926;2023-07-08T04:43:21;97188.34;;;21.32;44.84
1401;BME280;46518;48.842;8.926;2023-07-08T04:45:56;97196.53;;;21.36;44.88
1401;BME280;46518;48.842;8.926;2023-07-08T04:48:30;97196.25;;;21.37;44.76
1401;BME280;46518;48.842;8.926;2023-07-08T04:51:05;97212.31;;;21.37;44.47
1401;BME280;46518;48.842;8.926;2023-07-08T04:53:33;97209.03;;;21.40;44.23
1401;BME280;46518;48.842;8.926;2023-07-08T04:56:05;97213.25;;;21.41;44.26
1401;BME280;46518;48.842;8.926;2023-07-08T04:58:35;97201.13;;;21.44;44.65
1401;BME280;46518;48.842;8.926;2023-07-08T05:01:10;97209.16;;;21.44;44.97
1401;BME280;46518;48.842;8.926;2023-07-08T05:03:43;97208.09;;;21.45;45.36
1401;BME280;46518;48.842;8.926;2023-07-08T05:06:13;97214.69;;;21.47;45.48
1401;BME280;46518;48.842;8.926;2023-07-08T05:08:43;97215.63;;;21.51;45.41
1401;BME280;46518;48.842;8.926;2023-07-08T05:11:11;97235.00;;;21.48;45.78
1401;BME280;46518;48.842;8.926;2023-07-08T05:13:43;97224.44;;;21.43;45.72
1401;BME280;46518;48.842;8.926;2023-07-08T05:16:16;97208.88;;;21.54;44.24
1401;BME280;46518;48.842;8.926;2023-07-08T05:18:57;97212.19;;;21.42;43.12
1401;BME280;46518;48.842;8.926;2023-07-08T05:21:34;97214.38;;;21.66;43.72
1401;BME280;46518;48.842;8.926;2023-07-08T05:24:08;97222.91;;;21.77;44.29
1401;BME280;46518;48.842;8.926;2023-07-08T05:26:48;97220.09;;;21.82;43.58
1401;BME280;46518;48.842;8.926;2023-07-08T05:29:20;97218.66;;;21.93;43.69
1401;BME280;46518;48.842;8.926;2023-07-08T05:31:56;97215.97;;;21.93;43.84
1401;BME280;46518;48.842;8.926;2023-07-08T05:34:30;97217.06;;;21.84;43.41
1401;BME280;46518;48.842;8.926;2023-07-08T05:37:05;97220.69;;;21.96;42.87
1401;BME280;46518;48.842;8.926;2023-07-08T05:39:35;97228.25;;;22.12;43.64
1401;BME280;46518;48.842;8.926;2023-07-08T05:42:11;97213.56;;;22.18;43.27
1401;BME280;46518;48.842;8.926;2023-07-08T05:44:49;97219.41;;;22.29;43.85
1401;BME280;46518;48.842;8.926;2023-07-08T05:47:26;97217.53;;;22.12;43.75
1401;BME280;46518;48.842;8.926;2023-07-08T05:49:59;97229.00;;;22.38;42.97
1401;BME280;46518;48.842;8.926;2023-07-08T05:52:39;97232.94;;;22.50;43.16
1401;BME280;46518;48.842;8.926;2023-07-08T05:55:08;97240.03;;;22.54;43.44
1401;BME280;46518;48.842;8.926;2023-07-08T05:57:37;97233.06;;;22.62;42.87
1401;BME280;46518;48.842;8.926;2023-07-08T06:00:13;97248.31;;;22.79;42.89
1401;BME280;46518;48.842;8.926;2023-07-08T06:02:59;97249.47;;;22.60;42.29
1401;BME280;46518;48.842;8.926;2023-07-08T06:05:35;97241.53;;;22.81;41.86
1401;BME280;46518;48.842;8.926;2023-07-08T06:08:12;97235.81;;;22.92;42.40
1401;BME280;46518;48.842;8.926;2023-07-08T06:10:46;97241.53;;;23.20;41.78
1401;BME280;46518;48.842;8.926;2023-07-08T06:13:27;97239.03;;;23.15;41.37
1401;BME280;46518;48.842;8.926;2023-07-08T06:16:03;97247.28;;;23.39;41.30
1401;BME280;46518;48.842;8.926;2023-07-08T06:18:35;97243.84;;;23.51;40.74
1401;BME280;46518;48.842;8.926;2023-07-08T06:21:15;97231.91;;;23.69;40.35
1401;BME280;46518;48.842;8.926;2023-07-08T06:24:06;97233.34;;;24.09;40.38
1401;BME280;46518;48.842;8.926;2023-07-08T06:26:45;97233.63;;;24.28;39.84
1401;BME280;46518;48.842;8.926;2023-07-08T06:29:21;97239.44;;;24.51;38.64
1401;BME280;46518;48.842;8.926;2023-07-08T06:31:52;97254.50;;;24.77;38.90
1401;BME280;46518;48.842;8.926;2023-07-08T06:34:23;97261.03;;;25.01;38.00
1401;BME280;46518;48.842;8.926;2023-07-08T06:37:02;97261.03;;;25.01;37.83
1401;BME280;46518;48.842;8.926;2023-07-08T06:39:38;97275.31;;;25.01;37.90
1401;BME280;46518;48.842;8.926;2023-07-08T06:42:08;97272.38;;;25.06;37.98
1401;BME280;46518;48.842;8.926;2023-07-08T06:44:50;97281.16;;;25.40;36.93
1401;BME280;46518;48.842;8.926;2023-07-08T06:47:26;97284.06;;;25.59;37.38
1401;BME280;46518;48.842;8.926;2023-07-08T06:50:06;97287.50;;;25.97;37.09
1401;BME280;46518;48.842;8.926;2023-07-08T06:52:50;97281.00;;;25.73;37.28
1401;BME280;46518;48.842;8.926;2023-07-08T06:55:30;97279.16;;;26.02;36.97
1401;BME280;46518;48.842;8.926;2023-07-08T06:58:06;97275.28;;;26.15;36.58
1401;BME280;46518;48.842;8.926;2023-07-08T07:00:40;97273.56;;;25.82;37.17
1401;BME280;46518;48.842;8.926;2023-07-08T07:03:11;97279.44;;;25.60;37.87
1401;BME280;46518;48.842;8.926;2023-07-08T07:05:49;97282.03;;;25.69;37.44
1401;BME280;46518;48.842;8.926;2023-07-08T07:08:22;97278.47;;;26.05;38.32
1401;BME280;46518;48.842;8.926;2023-07-08T07:10:53;97284.84;;;26.13;37.91
1401;BME280;46518;48.842;8.926;2023-07-08T07:13:22;97294.56;;;26.01;37.56
1401;BME280;46518;48.842;8.926;2023-07-08T07:15:55;97296.03;;;26.27;37.53
1401;BME280;46518;48.842;8.926;2023-07-08T07:18:26;97290.72;;;26.31;36.34
1401;BME280;46518;48.842;8.926;2023-07-08T07:21:02;97299.03;;;26.38;35.75
1401;BME280;46518;48.842;8.926;2023-07-08T07:23:37;97294.56;;;26.30;35.87
1401;BME280;46518;48.842;8.926;2023-07-08T07:26:09;97303.19;;;26.07;35.10
1401;BME280;46518;48.842;8.926;2023-07-08T07:28:40;97299.44;;;26.24;35.82
1401;BME280;46518;48.842;8.926;2023-07-08T07:31:19;97295.78;;;26.32;36.59
1401;BME280;46518;48.842;8.926;2023-07-08T07:33:50;97309.94;;;26.41;37.68
1401;BME280;46518;48.842;8.926;2023-07-08T07:36:30;97312.06;;;26.36;36.72
1401;BME280;46518;48.842;8.926;2023-07-08T07:39:03;97309.88;;;26.25;35.93
1401;BME280;46518;48.842;8.926;2023-07-08T07:41:37;97298.16;;;26.34;35.71
1401;BME280;46518;48.842;8.926;2023-07-08T07:44:06;97294.84;;;26.40;36.36
1401;BME280;46518;48.842;8.926;2023-07-08T07:46:37;97297.56;;;26.40;36.30
1401;BME280;46518;48.842;8.926;2023-07-08T07:49:15;97303.50;;;26.46;35.90
1401;BME280;46518;48.842;8.926;2023-07-08T07:52:06;97305.06;;;26.47;35.78
1401;BME280;46518;48.842;8.926;2023-07-08T07:54:42;97310.91;;;26.49;36.37
1401;BME280;46518;48.842;8.926;2023-07-08T07:57:17;97308.66;;;26.51;37.27
1401;BME280;46518;48.842;8.926;2023-07-08T07:59:54;97302.38;;;26.47;36.45
1401;BME280;46518;48.842;8.926;2023-07-08T08:02:27;97304.16;;;26.55;38.43
1401;BME280;46518;48.842;8.926;2023-07-08T08:04:55;97302.13;;;26.52;36.72
1401;BME280;46518;48.842;8.926;2023-07-08T08:07:38;97306.16;;;26.58;36.66
1401;BME280;46518;48.842;8.926;2023-07-08T08:10:13;97302.16;;;26.68;36.09
1401;BME280;46518;48.842;8.926;2023-07-08T08:12:44;97301.81;;;26.70;36.25
1401;BME280;46518;48.842;8.926;2023-07-08T08:15:22;97294.94;;;26.72;36.56
1401;BME280;46518;48.842;8.926;2023-07-08T08:17:58;97295.47;;;26.78;36.28
1401;BME280;46518;48.842;8.926;2023-07-08T08:20:28;97302.09;;;26.64;36.54
1401;BME280;46518;48.842;8.926;2023-07-08T08:22:56;97304.94;;;26.56;36.74
1401;BME280;46518;48.842;8.926;2023-07-08T08:25:26;97295.78;;;26.60;36.65
1401;BME280;46518;48.842;8.926;2023-07-08T08:27:54;97291.13;;;26.89;37.43
1401;BME280;46518;48.842;8.926;2023-07-08T08:30:23;97290.03;;;27.06;37.10
1401;BME280;46518;48.842;8.926;2023-07-08T08:32:54;97294.47;;;27.30;36.26
1401;BME280;46518;48.842;8.926;2023-07-08T08:35:29;97292.81;;;27.25;35.26
1401;BME280;46518;48.842;8.926;2023-07-08T08:38:02;97295.88;;;27.24;34.25
1401;BME280;46518;48.842;8.926;2023-07-08T08:40:41;97297.66;;;27.51;35.71
1401;BME280;46518;48.842;8.926;2023-07-08T08:43:19;97300.53;;;27.43;33.86
1401;BME280;46518;48.842;8.926;2023-07-08T08:45:53;97296.00;;;27.47;33.68
1401;BME280;46518;48.842;8.926;2023-07-08T08:48:24;97294.66;;;27.72;34.12
1401;BME280;46518;48.842;8.926;2023-07-08T08:50:58;97298.56;;;27.75;32.53
1401;BME280;46518;48.842;8.926;2023-07-08T08:53:30;97291.94;;;27.72;32.48
1401;BME280;46518;48.842;8.926;2023-07-08T08:56:10;97292.44;;;27.94;31.19
1401;BME280;46518;48.842;8.926;2023-07-08T08:59:00;97293.81;;;28.04;31.19
1401;BME280;46518;48.842;8.926;2023-07-08T09:01:41;97296.69;;;27.95;30.67
1401;BME280;46518;48.842;8.926;2023-07-08T09:04:23;97298.84;;;28.05;30.69
1401;BME280;46518;48.842;8.926;2023-07-08T09:07:06;97286.94;;;28.29;30.60
1401;BME280;46518;48.842;8.926;2023-07-08T09:09:58;97293.88;;;28.46;31.04
1401;BME280;46518;48.842;8.926;2023-07-08T09:12:49;97295.34;;;28.63;31.72
1401;BME280;46518;48.842;8.926;2023-07-08T09:15:28;97289.44;;;28.57;30.26
1401;BME280;46518;48.842;8.926;2023-07-08T09:18:20;97294.25;;;28.68;30.12
1401;BME280;46518;48.842;8.926;2023-07-08T09:20:56;97285.44;;;28.71;30.17
1401;BME280;46518;48.842;8.926;2023-07-08T09:23:33;97293.09;;;28.88;29.26
1401;BME280;46518;48.842;8.926;2023-07-08T09:26:13;97287.41;;;29.20;30.56
1401;BME280;46518;48.842;8.926;2023-07-08T09:28:47;97290.31;;;29.31;29.90
1401;BME280;46518;48.842;8.926;2023-07-08T09:31:30;97283.53;;;29.44;28.55
1401;BME280;46518;48.842;8.926;2023-07-08T09:34:14;97284.13;;;29.60;29.27
1401;BME280;46518;48.842;8.926;2023-07-08T09:36:59;97281.19;;;29.69;29.81
1401;BME280;46518;48.842;8.926;2023-07-08T09:39:37;97283.63;;;29.78;30.08
1401;BME280;46518;48.842;8.926;2023-07-08T09:42:08;97279.81;;;29.82;29.61
1401;BME280;46518;48.842;8.926;2023-07-08T09:44:44;97285.19;;;29.52;28.40
1401;BME280;46518;48.842;8.926;2023-07-08T09:47:24;97283.31;;;29.56;28.27
1401;BME280;46518;48.842;8.926;2023-07-08T09:49:58;97282.91;;;29.81;28.59
1401;BME280;46518;48.842;8.926;2023-07-08T09:52:31;97270.66;;;29.94;30.13
1401;BME280;46518;48.842;8.926;2023-07-08T09:55:16;97276.88;;;29.95;28.83
1401;BME280;46518;48.842;8.926;2023-07-08T09:57:46;97270.84;;;30.08;28.37
1401;BME280;46518;48.842;8.926;2023-07-08T10:00:30;97272.25;;;30.25;28.21
1401;BME280;46518;48.842;8.926;2023-07-08T10:03:05;97272.63;;;30.27;29.21
1401;BME280;46518;48.842;8.926;2023-07-08T10:05:42;97272.38;;;30.40;29.74
1401;BME280;46518;48.842;8.926;2023-07-08T10:08:21;97265.13;;;30.51;29.14
1401;BME280;46518;48.842;8.926;2023-07-08T10:10:58;97254.22;;;30.47;28.33
1401;BME280;46518;48.842;8.926;2023-07-08T10:13:37;97277.34;;;30.30;27.88
1401;BME280;46518;48.842;8.926;2023-07-08T10:16:17;97272.25;;;30.29;30.00
1401;BME280;46518;48.842;8.926;2023-07-08T10:18:51;97281.97;;;30.30;30.52
1401;BME280;46518;48.842;8.926;2023-07-08T10:21:31;97278.53;;;30.33;30.64
1401;BME280;46518;48.842;8.926;2023-07-08T10:24:15;97282.72;;;30.27;28.72
1401;BME280;46518;48.842;8.926;2023-07-08T10:26:56;97276.94;;;30.32;28.85
1401;BME280;46518;48.842;8.926;2023-07-08T10:29:34;97274.44;;;30.20;28.99
1401;BME280;46518;48.842;8.926;2023-07-08T10:32:20;97272.25;;;30.25;29.46
1401;BME280;46518;48.842;8.926;2023-07-08T10:34:59;97274.84;;;30.18;29.19
1401;BME280;46518;48.842;8.926;2023-07-08T10:37:40;97265.22;;;30.24;28.94
1401;BME280;46518;48.842;8.926;2023-07-08T10:40:27;97269.53;;;30.25;29.80
1401;BME280;46518;48.842;8.926;2023-07-08T10:43:19;97265.66;;;30.26;29.31
1401;BME280;46518;48.842;8.926;2023-07-08T10:45:59;97279.63;;;30.28;29.27
1401;BME280;46518;48.842;8.926;2023-07-08T10:49:00;97272.25;;;30.29;29.08
1401;BME280;46518;48.842;8.926;2023-07-08T10:51:56;97275.16;;;30.13;29.13
1401;BME280;46518;48.842;8.926;2023-07-08T10:54:43;97275.97;;;30.17;28.77
1401;BME280;46518;48.842;8.926;2023-07-08T10:57:35;97269.16;;;29.97;29.46
1401;BME280;46518;48.842;8.926;2023-07-08T11:00:20;97268.28;;;30.23;29.61
1401;BME280;46518;48.842;8.926;2023-07-08T11:03:10;97266.09;;;30.32;29.17
1401;BME280;46518;48.842;8.926;2023-07-08T11:05:50;97264.34;;;30.50;29.31
1401;BME280;46518;48.842;8.926;2023-07-08T11:08:27;97266.59;;;30.45;28.67
1401;BME280;46518;48.842;8.926;2023-07-08T11:11:03;97260.84;;;30.50;28.59
1401;BME280;46518;48.842;8.926;2023-07-08T11:13:48;97262.75;;;30.46;27.84
1401;BME280;46518;48.842;8.926;2023-07-08T11:16:23;97271.97;;;30.38;28.55
1401;BME280;46518;48.842;8.926;2023-07-08T11:19:02;97263.28;;;30.25;28.44
1401;BME280;46518;48.842;8.926;2023-07-08T11:21:41;97261.03;;;30.30;28.91
1401;BME280;46518;48.842;8.926;2023-07-08T11:24:23;97257.06;;;30.58;29.03
1401;BME280;46518;48.842;8.926;2023-07-08T11:27:00;97262.69;;;30.42;28.03
1401;BME280;46518;48.842;8.926;2023-07-08T11:29:36;97260.28;;;30.34;27.70
1401;BME280;46518;48.842;8.926;2023-07-08T11:32:14;97256.31;;;30.61;27.56
1401;BME280;46518;48.842;8.926;2023-07-08T11:34:46;97250.88;;;30.65;27.97
1401;BME280;46518;48.842;8.926;2023-07-08T11:37:22;97256.97;;;30.92;28.46
1401;BME280;46518;48.842;8.926;2023-07-08T11:42:39;97257.03;;;30.95;27.53
1401;BME280;46518;48.842;8.926;2023-07-08T11:45:30;97256.88;;;30.81;27.53
1401;BME280;46518;48.842;8.926;2023-07-08T11:48:05;97255.28;;;30.80;27.71
1401;BME280;46518;48.842;8.926;2023-07-08T11:50:37;97256.78;;;30.70;27.71
1401;BME280;46518;48.842;8.926;2023-07-08T11:53:26;97251.03;;;30.79;30.12
1401;BME280;46518;48.842;8.926;2023-07-08T11:56:04;97236.25;;;30.73;29.95
1401;BME280;46518;48.842;8.926;2023-07-08T11:58:51;97245.16;;;30.73;30.08
1401;BME280;46518;48.842;8.926;2023-07-08T12:01:25;97244.25;;;30.59;28.78
1401;BME280;46518;48.842;8.926;2023-07-08T12:04:15;97235.47;;;30.35;30.01
1401;BME280;46518;48.842;8.926;2023-07-08T12:06:53;97229.59;;;30.29;31.11
1401;BME280;46518;48.842;8.926;2023-07-08T12:09:36;97233.16;;;30.34;30.37
1401;BME280;46518;48.842;8.926;2023-07-08T12:12:16;97238.75;;;30.51;30.02
1401;BME280;46518;48.842;8.926;2023-07-08T12:14:50;97230.94;;;30.46;29.60
1401;BME280;46518;48.842;8.926;2023-07-08T12:17:21;97232.31;;;30.29;29.86
1401;BME280;46518;48.842;8.926;2023-07-08T12:19:57;97235.84;;;30.34;29.68
1401;BME280;46518;48.842;8.926;2023-07-08T12:22:30;97239.38;;;30.38;29.70
1401;BME280;46518;48.842;8.926;2023-07-08T12:25:04;97237.75;;;30.70;28.65
1401;BME280;46518;48.842;8.926;2023-07-08T12:27:35;97240.69;;;30.92;28.68
1401;BME280;46518;48.842;8.926;2023-07-08T12:30:04;97238.00;;;30.99;28.42
1401;BME280;46518;48.842;8.926;2023-07-08T12:32:34;97234.53;;;30.99;28.71
1401;BME280;46518;48.842;8.926;2023-07-08T12:35:17;97233.88;;;31.20;28.00
1401;BME280;46518;48.842;8.926;2023-07-08T12:37:55;97226.97;;;31.29;29.85
1401;BME280;46518;48.842;8.926;2023-07-08T12:40:29;97237.06;;;31.32;28.21
1401;BME280;46518;48.842;8.926;2023-07-08T12:43:00;97229.34;;;31.38;28.52
1401;BME280;46518;48.842;8.926;2023-07-08T12:45:43;97237.59;;;31.45;28.72
1401;BME280;46518;48.842;8.926;2023-07-08T12:48:18;97237.97;;;31.47;28.24
1401;BME280;46518;48.842;8.926;2023-07-08T12:50:54;97229.09;;;31.57;28.12
1401;BME280;46518;48.842;8.926;2023-07-08T12:53:29;97233.38;;;31.62;28.22
1401;BME280;46518;48.842;8.926;2023-07-08T12:56:07;97234.56;;;31.65;27.61
1401;BME280;46518;48.842;8.926;2023-07-08T12:58:40;97227.53;;;31.56;27.99
1401;BME280;46518;48.842;8.926;2023-07-08T13:01:17;97231.84;;;31.65;28.34
1401;BME280;46518;48.842;8.926;2023-07-08T13:03:55;97227.16;;;31.62;27.98
1401;BME280;46518;48.842;8.926;2023-07-08T13:06:30;97230.66;;;31.62;28.24
1401;BME280;46518;48.842;8.926;2023-07-08T13:09:07;97224.13;;;31.74;27.06
1401;BME280;46518;48.842;8.926;2023-07-08T13:11:41;97229.53;;;31.67;27.46
1401;BME280;46518;48.842;8.926;2023-07-08T13:14:15;97222.31;;;32.03;27.47
1401;BME280;46518;48.842;8.926;2023-07-08T13:16:45;97220.00;;;32.12;27.02
1401;BME280;46518;48.842;8.926;2023-07-08T13:19:15;97216.91;;;32.17;27.29
1401;BME280;46518;48.842;8.926;2023-07-08T13:21:52;97219.25;;;32.22;27.75
1401;BME280;46518;48.842;8.926;2023-07-08T13:24:31;97223.13;;;32.21;26.90
1401;BME280;46518;48.842;8.926;2023-07-08T13:27:21;97217.31;;;32.23;26.93
1401;BME280;46518;48.842;8.926;2023-07-08T13:29:55;97216.53;;;32.30;27.05
1401;BME280;46518;48.842;8.926;2023-07-08T13:32:30;97223.19;;;32.36;26.79
1401;BME280;46518;48.842;8.926;2023-07-08T13:35:01;97221.59;;;32.31;28.92
1401;BME280;46518;48.842;8.926;2023-07-08T13:37:31;97222.78;;;32.44;26.44
1401;BME280;46518;48.842;8.926;2023-07-08T13:39:59;97223.22;;;32.54;26.46
1401;BME280;46518;48.842;8.926;2023-07-08T13:42:29;97219.34;;;32.65;27.13
1401;BME280;46518;48.842;8.926;2023-07-08T13:45:00;97211.50;;;32.28;25.90
1401;BME280;46518;48.842;8.926;2023-07-08T13:47:32;97216.94;;;32.28;25.79
1401;BME280;46518;48.842;8.926;2023-07-08T13:50:16;97206.88;;;32.54;27.08
1401;BME280;46518;48.842;8.926;2023-07-08T13:52:55;97194.03;;;32.54;26.64
1401;BME280;46518;48.842;8.926;2023-07-08T13:55:27;97210.78;;;32.56;25.65
1401;BME280;46518;48.842;8.926;2023-07-08T13:57:59;97214.63;;;32.30;26.71
1401;BME280;46518;48.842;8.926;2023-07-08T14:00:35;97211.91;;;32.48;25.87
1401;BME280;46518;48.842;8.926;2023-07-08T14:03:09;97214.28;;;32.60;27.34
1401;BME280;46518;48.842;8.926;2023-07-08T14:05:45;97201.44;;;32.64;26.20